Time;durP1;ratioP1;P1;durP2;ratioP2;P2;SDS_P1;SDS_P2;PMS_P1;PMS_P2;Temp;Humidity;BMP_temperature;BMP_pressure;BME280_temperature;BME280_humidity;BME280_pressure;Samples;Min_cycle;Max_cycle;Signal;HPM_P1;HPM_P2
2021/04/22 00:01:28;;;;;;;43.65;22.60;;;;;;;8.23;60.36;99982.14;2178280;80;33641;-68
2021/04/22 00:04:30;;;;;;;41.55;22.27;;;;;;;8.21;60.29;99979.06;2138999;81;28758;-65
2021/04/22 00:07:32;;;;;;;38.40;20.72;;;;;;;8.23;60.43;99975.02;2176976;80;27578;-66
2021/04/22 00:10:45;;;;;;;37.70;20.70;;;;;;;8.24;60.27;99972.75;2150655;81;28946;-68
2021/04/22 00:13:48;;;;;;;41.33;20.10;;;;;;;8.26;60.30;99977.55;2188469;80;31561;-68
2021/04/22 00:16:50;;;;;;;43.08;20.85;;;;;;;8.28;60.39;99972.13;2139042;81;33139;-66
2021/04/22 00:19:52;;;;;;;46.10;22.55;;;;;;;8.31;60.32;99970.66;2205899;80;29708;-67
2021/04/22 00:22:54;;;;;;;39.10;21.23;;;;;;;8.35;60.72;99977.13;2169690;81;27783;-66
2021/04/22 00:25:57;;;;;;;40.03;19.70;;;;;;;8.38;60.77;99980.59;2178227;80;29042;-65
2021/04/22 00:28:59;;;;;;;39.03;19.30;;;;;;;8.40;60.89;99971.56;2155069;81;31167;-66
2021/04/22 00:32:02;;;;;;;35.60;19.77;;;;;;;8.43;60.89;99978.58;2202890;80;33129;-68
2021/04/22 00:35:07;;;;;;;35.33;19.25;;;;;;;8.45;61.19;99983.36;2158435;81;30137;-68
2021/04/22 00:38:09;;;;;;;39.15;19.73;;;;;;;8.46;61.24;99981.97;2194692;80;28233;-67
2021/04/22 00:41:12;;;;;;;37.45;18.00;;;;;;;8.51;61.35;99986.67;2140719;81;28832;-68
2021/04/22 00:44:14;;;;;;;32.70;16.87;;;;;;;8.58;61.48;99995.26;2194123;80;31148;-65
2021/04/22 00:47:18;;;;;;;32.67;18.52;;;;;;;8.63;61.32;99983.88;2165045;81;32695;-62
2021/04/22 00:50:27;;;;;;;32.20;17.57;;;;;;;8.70;61.38;99984.94;2195824;80;29164;-69
2021/04/22 00:53:31;;;;;;;30.15;16.90;;;;;;;8.77;61.42;100002.42;2147057;81;27666;-65
2021/04/22 00:56:33;;;;;;;32.60;17.60;;;;;;;8.83;61.22;99999.92;2177939;80;28823;-68
2021/04/22 00:59:36;;;;;;;28.42;16.55;;;;;;;8.87;61.15;100006.37;2164237;81;31128;-63
2021/04/22 01:02:39;;;;;;;32.95;17.62;;;;;;;8.92;61.10;100002.14;2177809;81;34098;-64
2021/04/22 01:05:48;;;;;;;33.42;16.93;;;;;;;8.95;61.06;100010.02;2138865;81;31467;-67
2021/04/22 01:08:51;;;;;;;30.72;17.50;;;;;;;8.98;60.97;100008.54;2183054;80;27683;-70
2021/04/22 01:11:55;;;;;;;27.48;17.52;;;;;;;9.03;61.19;100017.17;2176787;81;31034;-66
2021/04/22 01:14:58;;;;;;;32.78;17.95;;;;;;;9.07;61.68;100024.60;2193158;80;31142;-67
2021/04/22 01:18:01;;;;;;;33.63;17.52;;;;;;;9.10;61.86;100024.45;2203685;80;33197;-69
2021/04/22 01:21:04;;;;;;;31.85;18.10;;;;;;;9.13;62.22;100018.94;2187594;80;29937;-67
2021/04/22 01:24:09;;;;;;;29.92;18.20;;;;;;;9.15;62.54;100022.41;2196160;80;27662;-68
2021/04/22 01:27:11;;;;;;;33.40;18.87;;;;;;;9.17;62.75;100025.88;2174923;80;28831;-64
2021/04/22 01:30:22;;;;;;;34.73;18.42;;;;;;;9.17;62.97;100036.57;2172999;81;31155;-68
2021/04/22 01:33:27;;;;;;;33.18;17.87;;;;;;;9.18;62.93;100046.32;2196627;80;34474;-67
2021/04/22 01:36:41;;;;;;;27.05;17.23;;;;;;;9.20;63.15;100055.14;2203918;79;29231;-69
2021/04/22 01:39:43;;;;;;;26.87;15.78;;;;;;;9.26;63.51;100052.18;2182479;81;27706;-68
2021/04/22 01:42:45;;;;;;;31.23;17.10;;;;;;;9.30;63.70;100050.22;2169732;81;29428;-68
2021/04/22 01:45:48;;;;;;;26.45;15.40;;;;;;;9.37;64.17;100058.31;2189533;80;31129;-67
2021/04/22 01:48:51;;;;;;;27.62;16.23;;;;;;;9.41;64.17;100072.42;2210106;79;35510;-66
2021/04/22 01:51:54;;;;;;;24.60;16.55;;;;;;;9.45;64.50;100065.11;2214201;79;29162;-66
2021/04/22 01:54:56;;;;;;;26.00;16.00;;;;;;;9.47;64.59;100067.25;2168289;81;27700;-66
2021/04/22 01:57:59;;;;;;;29.57;16.45;;;;;;;9.50;64.74;100060.41;2201197;80;28814;-65
2021/04/22 02:01:04;;;;;;;26.80;16.90;;;;;;;9.46;64.81;100054.81;2174588;81;31145;-66
2021/04/22 02:04:07;;;;;;;29.07;17.92;;;;;;;9.46;64.89;100061.02;2160810;81;33113;-67
2021/04/22 02:07:10;;;;;;;24.07;15.98;;;;;;;9.43;65.11;100059.37;2182277;81;31484;-67
2021/04/22 02:10:13;;;;;;;24.82;15.88;;;;;;;9.42;65.17;100058.12;2201485;80;27667;-68
2021/04/22 02:13:17;;;;;;;26.05;15.55;;;;;;;9.41;65.47;100057.23;2158861;81;29714;-67
2021/04/22 02:16:19;;;;;;;31.00;16.48;;;;;;;9.41;65.49;100065.25;2131392;83;32089;-64
2021/04/22 02:19:23;;;;;;;30.57;18.45;;;;;;;9.43;65.68;100071.40;2141999;82;33537;-65
2021/04/22 02:22:25;;;;;;;30.45;17.57;;;;;;;9.44;65.82;100084.28;2144322;82;29172;-68
2021/04/22 02:25:29;;;;;;;29.48;17.65;;;;;;;9.43;66.12;100075.89;2177297;81;27664;-67
2021/04/22 02:28:34;;;;;;;25.60;16.75;;;;;;;9.39;66.22;100084.52;2164136;81;28819;-67
2021/04/22 02:31:36;;;;;;;27.60;18.02;;;;;;;9.36;66.18;100093.16;2171401;80;31239;-67
2021/04/22 02:34:39;;;;;;;29.02;19.27;;;;;;;9.32;66.34;100088.44;2179378;81;33987;-67
2021/04/22 02:37:42;;;;;;;30.72;17.25;;;;;;;9.28;66.39;100096.20;2181695;81;31487;-68
2021/04/22 02:40:46;;;;;;;30.02;16.37;;;;;;;9.22;66.43;100096.48;2172574;81;28096;-67
2021/04/22 02:43:48;;;;;;;25.82;16.87;;;;;;;9.16;66.45;100095.45;2163620;81;28807;-68
2021/04/22 02:46:53;;;;;;;18.62;13.65;;;;;;;9.14;66.38;100091.98;2164684;81;27654;-66
2021/04/22 02:49:55;;;;;;;24.55;14.28;;;;;;;9.08;66.14;100083.30;2178433;81;35464;-69
2021/04/22 02:52:59;;;;;;;22.07;13.85;;;;;;;9.03;66.06;100083.12;2178611;81;29161;-67
2021/04/22 02:56:01;;;;;;;24.02;13.93;;;;;;;8.99;66.14;100090.88;2177400;81;27766;-62
2021/04/22 02:59:04;;;;;;;21.45;13.70;;;;;;;8.97;66.29;100101.17;2178777;81;29299;-62
2021/04/22 03:02:06;;;;;;;17.42;11.85;;;;;;;8.97;66.50;100097.64;2178487;81;31130;-63
2021/04/22 03:05:10;;;;;;;17.85;11.65;;;;;;;8.94;66.37;100105.31;2178598;81;33139;-63
2021/04/22 03:08:13;;;;;;;18.30;10.53;;;;;;;8.91;66.14;100112.16;2175663;81;29196;-62
2021/04/22 03:11:15;;;;;;;22.73;10.95;;;;;;;8.86;66.19;100103.48;2177336;81;27669;-62
2021/04/22 03:14:18;;;;;;;22.20;11.70;;;;;;;8.83;66.17;100121.45;2157340;81;29381;-64
2021/04/22 03:17:22;;;;;;;20.10;12.78;;;;;;;8.77;66.38;100118.12;2176069;81;32348;-63
2021/04/22 03:20:24;;;;;;;22.85;12.43;;;;;;;8.72;66.30;100123.27;2178885;81;33846;-62
2021/04/22 03:23:26;;;;;;;20.48;11.12;;;;;;;8.69;66.44;100122.92;2178797;81;29146;-65
2021/04/22 03:26:28;;;;;;;21.17;10.48;;;;;;;8.64;66.38;100128.47;2174707;81;28159;-64
2021/04/22 03:29:32;;;;;;;19.35;9.15;;;;;;;8.55;66.25;100139.58;2174891;81;29223;-64
2021/04/22 03:32:34;;;;;;;17.70;8.05;;;;;;;8.48;66.26;100141.65;2161025;81;31170;-67
2021/04/22 03:35:37;;;;;;;15.90;7.85;;;;;;;8.43;66.18;100139.61;2176001;81;33171;-64
2021/04/22 03:38:39;;;;;;;15.60;7.00;;;;;;;8.41;66.24;100144.14;2177236;81;29733;-62
2021/04/22 03:41:41;;;;;;;14.93;6.67;;;;;;;8.39;65.99;100150.00;2178792;81;27619;-63
2021/04/22 03:44:45;;;;;;;15.63;6.58;;;;;;;8.40;66.11;100158.41;2178038;81;29258;-62
2021/04/22 03:47:48;;;;;;;13.95;6.40;;;;;;;8.41;66.19;100161.48;2177786;81;32026;-62
2021/04/22 03:50:51;;;;;;;13.48;6.42;;;;;;;8.40;66.00;100158.41;2177618;81;34447;-66
2021/04/22 03:53:54;;;;;;;7.58;5.08;;;;;;;8.41;66.06;100163.30;2176581;81;30107;-66
2021/04/22 03:56:56;;;;;;;12.78;5.12;;;;;;;8.38;65.59;100176.30;2160365;81;27778;-69
2021/04/22 03:59:59;;;;;;;11.48;5.17;;;;;;;8.33;65.58;100179.16;2177937;81;28821;-67
2021/04/22 04:03:02;;;;;;;9.65;4.65;;;;;;;8.32;65.47;100188.10;2175233;81;32177;-65
2021/04/22 04:06:05;;;;;;;14.80;4.30;;;;;;;8.27;65.15;100182.56;2175217;81;33527;-66
2021/04/22 04:09:08;;;;;;;8.53;4.30;;;;;;;8.23;64.98;100189.84;2177840;81;29239;-67
2021/04/22 04:12:10;;;;;;;11.85;4.92;;;;;;;8.18;65.02;100194.05;2178826;81;27630;-63
2021/04/22 04:15:14;;;;;;;11.60;4.55;;;;;;;8.12;64.57;100198.73;2175109;81;28817;-63
2021/04/22 04:18:21;;;;;;;11.80;3.87;;;;;;;8.06;64.59;100205.19;2167356;81;31137;-65
2021/04/22 04:21:23;;;;;;;12.55;3.80;;;;;;;7.98;64.31;100214.84;2178607;81;32951;-63
2021/04/22 04:24:25;;;;;;;19.32;4.55;;;;;;;7.95;64.22;100222.11;2177081;81;31481;-66
2021/04/22 04:27:27;;;;;;;10.30;3.40;;;;;;;7.91;64.14;100237.37;2174931;81;28180;-66
2021/04/22 04:30:31;;;;;;;15.80;3.02;;;;;;;7.87;64.00;100241.09;2176198;81;28900;-61
2021/04/22 04:33:33;;;;;;;12.68;2.83;;;;;;;7.84;63.33;100248.75;2177406;81;31214;-63
2021/04/22 04:36:35;;;;;;;9.50;2.95;;;;;;;7.81;63.20;100254.20;2178527;81;33071;-65
2021/04/22 04:39:37;;;;;;;7.42;2.12;;;;;;;7.79;62.45;100257.39;2177839;81;29169;-62
2021/04/22 04:42:41;;;;;;;11.45;2.55;;;;;;;7.73;61.57;100261.61;2178517;81;27801;-65
2021/04/22 04:45:43;;;;;;;15.03;2.35;;;;;;;7.68;61.39;100271.13;2177448;80;29017;-64
2021/04/22 04:48:46;;;;;;;10.95;2.92;;;;;;;7.66;60.93;100282.80;2178751;80;31324;-66
2021/04/22 04:51:48;;;;;;;13.43;2.35;;;;;;;7.64;60.61;100285.50;2179324;81;33138;-63
2021/04/22 04:54:51;;;;;;;7.95;2.20;;;;;;;7.62;60.85;100296.68;2180179;81;29168;-65
2021/04/22 04:57:53;;;;;;;13.48;2.92;;;;;;;7.63;60.67;100294.42;2180025;81;27614;-66
2021/04/22 05:00:55;;;;;;;15.03;2.95;;;;;;;7.66;60.51;100302.80;2179584;81;31078;-63
2021/04/22 05:03:58;;;;;;;10.60;2.40;;;;;;;7.70;60.45;100307.95;2182197;81;31196;-66
2021/04/22 05:07:00;;;;;;;10.00;2.65;;;;;;;7.74;60.15;100310.02;2178076;81;33125;-61
2021/04/22 05:10:07;;;;;;;13.08;4.08;;;;;;;7.72;59.79;100311.42;2161439;81;29472;-62
2021/04/22 05:13:09;;;;;;;7.25;2.20;;;;;;;7.73;59.70;100313.17;2182107;80;27688;-62
2021/04/22 05:16:12;;;;;;;11.18;2.60;;;;;;;7.72;59.45;100311.42;2179856;81;28825;-63
2021/04/22 05:19:14;;;;;;;8.13;2.52;;;;;;;7.71;59.04;100320.35;2181539;81;31208;-63
2021/04/22 05:22:16;;;;;;;13.62;2.40;;;;;;;7.72;58.58;100327.42;2178741;81;33966;-64
2021/04/22 05:25:19;;;;;;;10.55;2.52;;;;;;;7.75;58.59;100330.43;2181009;81;29177;-64
2021/04/22 05:28:22;;;;;;;10.43;2.42;;;;;;;7.82;58.65;100334.63;2180022;81;28063;-63
2021/04/22 05:31:25;;;;;;;16.82;3.12;;;;;;;8.07;59.05;100347.01;2181554;81;28807;-63
2021/04/22 05:34:28;;;;;;;17.40;3.83;;;;;;;8.30;58.79;100343.44;2180510;81;31159;-64
2021/04/22 05:37:30;;;;;;;19.27;2.80;;;;;;;8.42;57.66;100350.58;2180016;81;33172;-67
2021/04/22 05:40:33;;;;;;;13.65;3.12;;;;;;;8.41;57.57;100351.50;2162016;81;29172;-67
2021/04/22 05:43:36;;;;;;;13.48;3.50;;;;;;;8.39;56.83;100356.03;2177881;81;27730;-66
2021/04/22 05:46:40;;;;;;;16.60;3.20;;;;;;;8.30;55.91;100357.27;2169825;80;28832;-65
2021/04/22 05:49:42;;;;;;;9.08;3.25;;;;;;;8.21;55.81;100371.83;2159513;82;31154;-63
2021/04/22 05:52:45;;;;;;;17.00;4.17;;;;;;;8.23;56.08;100372.65;2159048;82;33146;-66
2021/04/22 05:55:47;;;;;;;16.00;5.95;;;;;;;8.30;55.50;100374.12;2159804;82;29186;-66
2021/04/22 05:58:49;;;;;;;12.18;3.98;;;;;;;8.80;56.05;100372.20;2160771;82;27668;-67
2021/04/22 06:01:52;;;;;;;18.20;3.67;;;;;;;9.57;54.71;100374.73;2160170;82;28822;-67
2021/04/22 06:04:54;;;;;;;16.32;3.52;;;;;;;10.19;53.85;100363.44;2159559;82;31192;-64
2021/04/22 06:07:57;;;;;;;15.63;3.52;;;;;;;10.41;53.56;100374.97;2149622;82;33121;-65
2021/04/22 06:10:59;;;;;;;18.48;4.53;;;;;;;10.58;51.83;100364.80;2148644;82;29095;-65
2021/04/22 06:14:02;;;;;;;11.85;4.03;;;;;;;10.63;51.47;100361.41;2159823;82;27700;-64
2021/04/22 06:17:04;;;;;;;15.85;3.98;;;;;;;10.89;51.14;100371.33;2160837;82;28808;-66
2021/04/22 06:20:17;;;;;;;15.53;3.80;;;;;;;11.21;51.02;100369.67;2160036;82;31132;-66
2021/04/22 06:23:19;;;;;;;11.73;3.22;;;;;;;11.40;50.62;100376.78;2159341;82;33964;-63
2021/04/22 06:26:23;;;;;;;13.35;3.65;;;;;;;11.47;49.58;100374.64;2160309;82;29165;-68
2021/04/22 06:29:25;;;;;;;8.65;3.10;;;;;;;11.45;49.58;100370.70;2160607;82;28185;-66
2021/04/22 06:32:27;;;;;;;11.85;3.77;;;;;;;11.43;48.77;100380.64;2160765;82;30158;-66
2021/04/22 06:35:30;;;;;;;10.13;3.50;;;;;;;11.78;47.93;100378.38;2160925;82;31204;-67
2021/04/22 06:38:33;;;;;;;13.90;3.12;;;;;;;12.13;48.63;100392.63;2134652;82;33120;-67
2021/04/22 06:41:35;;;;;;;7.45;3.35;;;;;;;12.43;47.56;100391.00;2160706;82;29139;-69
2021/04/22 06:44:37;;;;;;;10.00;4.50;;;;;;;12.83;46.92;100393.23;2160882;82;27596;-72
2021/04/22 06:47:40;;;;;;;13.18;3.58;;;;;;;13.13;46.22;100397.81;2150863;81;28832;-73
2021/04/22 06:50:44;;;;;;;23.15;4.90;;;;;;;13.26;46.30;100397.47;2153152;82;31142;-68
2021/04/22 06:53:46;;;;;;;14.83;3.80;;;;;;;13.68;45.75;100400.38;2160586;82;33101;-68
2021/04/22 06:56:49;;;;;;;9.55;3.30;;;;;;;13.62;44.65;100397.59;2161055;82;29165;-68
2021/04/22 06:59:51;;;;;;;15.80;4.70;;;;;;;13.42;44.86;100409.54;2160600;82;27673;-67
2021/04/22 07:02:53;;;;;;;11.40;4.28;;;;;;;13.14;44.47;100420.57;2161028;82;28814;-67
2021/04/22 07:05:55;;;;;;;11.90;4.65;;;;;;;12.92;44.23;100416.92;2159867;82;30428;-67
2021/04/22 07:08:58;;;;;;;9.73;3.62;;;;;;;12.96;44.81;100413.11;2157211;81;33127;-69
2021/04/22 07:12:00;;;;;;;17.50;3.20;;;;;;;12.89;44.29;100426.04;2148365;82;29150;-68
2021/04/22 07:15:05;;;;;;;13.72;3.92;;;;;;;13.14;43.81;100418.38;2153696;81;27712;-68
2021/04/22 07:18:08;;;;;;;17.80;4.47;;;;;;;13.52;44.08;100412.08;2160380;81;28814;-68
2021/04/22 07:21:11;;;;;;;17.07;4.12;;;;;;;13.43;43.31;100406.39;2159656;81;31314;-67
2021/04/22 07:24:13;;;;;;;13.93;4.40;;;;;;;13.17;43.44;100431.16;2160245;82;33191;-68
2021/04/22 07:27:15;;;;;;;12.88;4.12;;;;;;;12.95;42.91;100428.85;2159404;82;29239;-67
2021/04/22 07:30:20;;;;;;;12.58;4.25;;;;;;;12.68;42.82;100425.42;2159334;81;27656;-68
2021/04/22 07:33:22;;;;;;;12.75;4.87;;;;;;;12.60;43.24;100434.41;2159391;82;28815;-67
2021/04/22 07:36:25;;;;;;;9.25;3.50;;;;;;;12.59;43.21;100443.42;2159252;81;31721;-66
2021/04/22 07:39:27;;;;;;;14.80;4.47;;;;;;;12.80;43.21;100440.48;2160027;82;33126;-66
2021/04/22 07:42:30;;;;;;;13.68;4.08;;;;;;;13.32;42.56;100441.47;2159617;82;29727;-64
2021/04/22 07:45:37;;;;;;;9.65;3.83;;;;;;;13.41;42.41;100444.63;2135160;82;27773;-69
2021/04/22 07:48:39;;;;;;;12.07;3.80;;;;;;;13.32;41.58;100438.78;2179287;81;29714;-67
2021/04/22 07:51:42;;;;;;;15.20;4.17;;;;;;;13.27;41.93;100435.52;2181703;81;32520;-67
2021/04/22 07:54:44;;;;;;;12.75;3.80;;;;;;;13.28;41.83;100445.79;2183323;81;33601;-67
2021/04/22 07:57:49;;;;;;;13.30;4.42;;;;;;;13.64;41.90;100430.67;2177412;81;29168;-66
2021/04/22 08:00:51;;;;;;;11.50;4.15;;;;;;;14.04;42.16;100437.25;2182792;81;27643;-64
2021/04/22 08:03:54;;;;;;;12.60;4.15;;;;;;;14.28;41.38;100446.97;2182149;81;28828;-65
2021/04/22 08:06:56;;;;;;;12.43;3.42;;;;;;;14.26;40.21;100446.20;2181329;81;31603;-66
2021/04/22 08:09:59;;;;;;;12.78;3.60;;;;;;;14.37;40.59;100449.11;2181326;81;35316;-67
2021/04/22 08:13:03;;;;;;;12.05;3.40;;;;;;;14.53;40.43;100442.73;2181313;81;29170;-67
2021/04/22 08:16:06;;;;;;;9.85;3.67;;;;;;;14.51;39.81;100444.16;2181456;81;28048;-67
2021/04/22 08:19:09;;;;;;;15.38;4.35;;;;;;;14.41;39.64;100443.03;2156114;81;29698;-67
2021/04/22 08:22:12;;;;;;;8.80;3.65;;;;;;;14.55;39.69;100444.86;2181380;81;31784;-67
2021/04/22 08:25:19;;;;;;;9.48;3.55;;;;;;;14.83;40.46;100440.39;2181267;81;33315;-67
2021/04/22 08:28:24;;;;;;;16.65;4.05;;;;;;;15.11;39.69;100435.86;2181637;81;29464;-68
2021/04/22 08:31:28;;;;;;;11.60;4.05;;;;;;;15.26;38.74;100442.94;2182277;81;27704;-67
2021/04/22 08:34:31;;;;;;;;;;;;;;;15.40;38.68;100432.56;2184494;81;29701;-67
2021/04/22 08:37:36;;;;;;;15.88;4.60;;;;;;;15.49;38.46;100440.52;2183297;80;31331;-67
2021/04/22 08:40:37;;;;;;;15.28;5.35;;;;;;;15.65;37.97;100433.56;2180835;81;33126;-67
2021/04/22 08:43:41;;;;;;;16.25;4.50;;;;;;;15.74;37.75;100429.37;2182104;81;29174;-67
2021/04/22 08:46:43;;;;;;;13.13;4.58;;;;;;;15.61;37.99;100441.53;2181861;81;27609;-69
2021/04/22 08:49:46;;;;;;;14.55;3.83;;;;;;;15.44;37.44;100433.20;2173393;81;28802;-67
2021/04/22 08:52:51;;;;;;;11.55;5.53;;;;;;;15.19;37.66;100435.73;2171342;81;31033;-64
2021/04/22 08:55:54;;;;;;;12.85;4.15;;;;;;;15.15;38.49;100432.00;2164789;81;33106;-67
2021/04/22 08:58:56;;;;;;;12.98;3.90;;;;;;;15.06;37.37;100429.43;2172132;81;29239;-67
2021/04/22 09:01:59;;;;;;;10.43;4.30;;;;;;;14.82;37.12;100438.66;2172141;81;27642;-64
2021/04/22 09:05:01;;;;;;;15.78;7.78;;;;;;;14.70;37.95;100443.02;2148233;80;29621;-67
2021/04/22 09:08:05;;;;;;;8.75;4.55;;;;;;;14.66;38.11;100446.83;2164320;81;31158;-68
2021/04/22 09:11:08;;;;;;;12.55;4.22;;;;;;;14.59;37.52;100435.58;2173136;81;33983;-67
2021/04/22 09:14:15;;;;;;;9.20;4.55;;;;;;;14.51;38.20;100443.31;2171946;81;29144;-66
2021/04/22 09:17:20;;;;;;;9.88;4.37;;;;;;;14.44;38.22;100432.05;2171421;81;27783;-68
2021/04/22 09:20:30;;;;;;;13.65;5.08;;;;;;;14.38;38.32;100433.78;2172377;81;28792;-63
2021/04/22 09:23:33;;;;;;;13.98;4.10;;;;;;;14.24;38.74;100447.66;2172059;81;32167;-67
2021/04/22 09:26:46;;;;;;;11.80;3.87;;;;;;;14.30;38.52;100436.12;2171918;81;34621;-67
2021/04/22 09:29:53;;;;;;;9.95;3.87;;;;;;;14.29;38.40;100444.66;2171651;81;29659;-66
2021/04/22 09:32:55;;;;;;;14.10;4.92;;;;;;;14.08;38.23;100445.53;2173233;81;27631;-67
2021/04/22 09:36:29;;;;;;;12.73;4.40;;;;;;;13.98;38.30;100434.45;2172115;81;28806;-64
2021/04/22 09:39:33;;;;;;;12.10;4.25;;;;;;;13.91;38.61;100434.44;2088723;85;32102;-68
2021/04/22 09:42:36;;;;;;;10.53;2.62;;;;;;;13.75;38.59;100434.03;2080825;85;33999;-66
2021/04/22 09:45:44;;;;;;;16.02;5.80;;;;;;;13.59;38.72;100435.92;2099532;83;29583;-66
2021/04/22 09:48:46;;;;;;;12.05;4.12;;;;;;;13.37;38.68;100439.39;2139470;83;27707;-65
2021/04/22 09:51:49;;;;;;;14.47;5.00;;;;;;;13.27;39.08;100436.87;2143096;83;29845;-65
2021/04/22 09:54:53;;;;;;;13.30;4.28;;;;;;;13.17;39.34;100429.81;2141163;83;31564;-66
2021/04/22 09:57:57;;;;;;;9.33;3.73;;;;;;;13.15;39.39;100432.22;2070256;85;33010;-66
2021/04/22 10:00:59;;;;;;;9.85;3.60;;;;;;;13.24;39.62;100434.84;2142385;83;29169;-66
2021/04/22 10:04:03;;;;;;;15.05;3.80;;;;;;;13.33;39.57;100431.59;2098540;83;28193;-67
2021/04/22 10:07:22;;;;;;;13.08;4.53;;;;;;;13.43;39.98;100423.38;2124634;83;29787;-65
2021/04/22 10:10:24;;;;;;;8.55;3.83;;;;;;;13.45;39.47;100426.00;2142619;83;32124;-65
2021/04/22 10:13:27;;;;;;;14.33;5.40;;;;;;;13.48;39.42;100435.25;2124700;83;33157;-66
2021/04/22 10:16:34;;;;;;;8.40;3.35;;;;;;;13.53;39.90;100426.39;2103992;83;29173;-64
2021/04/22 10:19:36;;;;;;;10.78;4.03;;;;;;;13.59;39.85;100427.38;2143045;82;28346;-66
2021/04/22 10:22:42;;;;;;;13.53;3.50;;;;;;;13.49;38.72;100432.45;2143100;83;29244;-65
2021/04/22 10:25:44;;;;;;;13.72;3.72;;;;;;;13.38;39.08;100428.16;2126632;83;32235;-64
2021/04/22 10:28:47;;;;;;;14.15;4.40;;;;;;;13.27;39.62;100423.87;2134526;83;34654;-64
2021/04/22 10:31:50;;;;;;;10.93;4.00;;;;;;;13.26;39.61;100418.98;2143144;83;28043;-66
2021/04/22 10:34:53;;;;;;;11.88;3.50;;;;;;;13.26;39.58;100415.41;2121535;83;27661;-66
2021/04/22 10:38:03;;;;;;;14.28;3.65;;;;;;;13.32;39.44;100420.45;2135767;82;28939;-65
2021/04/22 10:41:08;;;;;;;10.15;3.30;;;;;;;13.23;39.15;100417.81;2120521;82;32563;-65
2021/04/22 10:44:17;;;;;;;10.32;3.08;;;;;;;13.15;39.56;100410.69;2104384;83;33978;-66
2021/04/22 10:47:24;;;;;;;9.25;3.35;;;;;;;13.10;39.63;100404.70;2120793;83;30061;-66
2021/04/22 10:50:49;;;;;;;8.90;3.67;;;;;;;13.06;39.51;100399.99;2120656;83;27948;-64
2021/04/22 10:54:15;;;;;;;10.40;3.05;;;;;;;13.17;39.86;100420.40;2120515;83;29277;-65
2021/04/22 10:57:28;;;;;;;8.23;3.00;;;;;;;13.24;39.69;100416.86;1981630;88;32072;-65
2021/04/22 11:00:41;;;;;;;8.95;3.20;;;;;;;13.36;39.05;100411.23;1961928;89;33140;-64
2021/04/22 11:03:48;;;;;;;10.95;3.05;;;;;;;13.44;39.52;100414.35;1979386;89;30050;-66
2021/04/22 11:06:51;;;;;;;9.58;3.75;;;;;;;13.60;38.97;100414.77;1983976;89;28005;-67
2021/04/22 11:10:00;;;;;;;10.32;4.00;;;;;;;13.65;39.45;100420.75;1981606;89;27921;-64
2021/04/22 11:13:21;;;;;;;10.28;3.40;;;;;;;13.67;38.75;100425.08;1963330;89;31168;-65
2021/04/22 11:16:36;;;;;;;8.90;3.30;;;;;;;13.62;39.05;100429.02;1981352;89;34086;-64
2021/04/22 11:19:47;;;;;;;10.23;3.22;;;;;;;13.63;39.20;100426.25;1983423;89;29171;-66
2021/04/22 11:22:51;;;;;;;7.62;2.83;;;;;;;13.59;38.65;100435.92;1961587;89;27861;-64
2021/04/22 11:25:59;;;;;;;13.13;5.78;;;;;;;13.53;38.61;100426.39;1983468;89;29722;-65
2021/04/22 11:29:21;;;;;;;12.50;3.30;;;;;;;13.63;39.28;100432.98;1983316;89;32061;-67
2021/04/22 11:32:38;;;;;;;11.55;3.60;;;;;;;13.79;39.17;100431.55;1981010;89;33979;-63
2021/04/22 11:35:48;;;;;;;9.73;3.67;;;;;;;13.93;38.62;100436.09;1980831;89;30039;-66
2021/04/22 11:39:06;;;;;;;14.00;4.97;;;;;;;13.96;38.64;100432.34;1983416;88;28039;-66
2021/04/22 11:42:12;;;;;;;10.50;3.47;;;;;;;13.88;38.36;100428.77;1980895;89;29718;-66
2021/04/22 11:45:28;;;;;;;13.22;4.17;;;;;;;13.82;38.78;100429.14;1983524;89;31172;-64
2021/04/22 11:48:44;;;;;;;9.95;2.95;;;;;;;13.74;38.50;100436.34;2047437;86;33129;-66
2021/04/22 11:51:49;;;;;;;11.93;4.35;;;;;;;13.67;37.80;100435.00;2050353;85;29167;-67
2021/04/22 11:54:57;;;;;;;16.37;7.62;;;;;;;13.44;37.59;100431.84;2030770;84;27941;-64
2021/04/22 11:58:21;;;;;;;12.60;4.00;;;;;;;13.25;37.90;100435.20;2115086;84;29719;-66
2021/04/22 12:01:32;;;;;;;10.63;4.20;;;;;;;13.10;38.15;100437.83;2089003;84;32068;-65
2021/04/22 12:04:46;;;;;;;15.85;5.37;;;;;;;12.98;38.30;100425.11;2111596;84;34016;-61
2021/04/22 12:08:01;;;;;;;13.07;4.93;;;;;;;12.99;38.69;100430.38;2112425;84;29176;-68
2021/04/22 12:11:11;;;;;;;12.85;3.40;;;;;;;12.97;38.46;100435.02;2090082;84;27956;-66
2021/04/22 12:14:20;;;;;;;17.87;6.25;;;;;;;12.95;38.43;100436.03;2112188;84;28821;-68
2021/04/22 12:17:35;;;;;;;14.47;4.30;;;;;;;12.93;38.89;100444.20;2108470;84;31180;-65
2021/04/22 12:20:41;;;;;;;18.15;8.53;;;;;;;12.84;38.59;100438.88;2112342;84;33125;-68
2021/04/22 12:24:02;;;;;;;15.50;3.67;;;;;;;12.80;38.97;100429.73;2111584;84;30058;-66
2021/04/22 12:27:09;;;;;;;9.70;4.25;;;;;;;12.76;38.46;100439.77;2112259;84;27900;-66
2021/04/22 12:30:30;;;;;;;14.60;5.58;;;;;;;12.72;38.70;100439.58;2091034;84;28832;-69
2021/04/22 12:33:34;;;;;;;10.65;4.30;;;;;;;12.66;38.65;100432.70;2112451;84;31152;-71
2021/04/22 12:36:42;;;;;;;13.32;3.83;;;;;;;12.68;38.87;100424.08;2090733;84;34000;-71
2021/04/22 12:39:55;;;;;;;17.02;6.28;;;;;;;12.77;38.62;100426.72;2113517;84;29205;-70
2021/04/22 12:43:07;;;;;;;9.10;3.80;;;;;;;12.88;38.39;100429.69;2111789;84;27985;-64
2021/04/22 12:46:23;;;;;;;15.95;6.95;;;;;;;13.03;39.16;100414.95;2118436;83;29727;-65
2021/04/22 12:49:32;;;;;;;14.20;4.70;;;;;;;13.17;38.79;100429.81;2117852;83;32112;-67
2021/04/22 12:52:38;;;;;;;10.58;4.20;;;;;;;13.16;38.33;100417.78;2118007;83;33991;-66
2021/04/22 12:56:05;;;;;;;15.75;5.78;;;;;;;13.12;38.42;100424.31;2117849;83;29115;-65
2021/04/22 12:59:14;;;;;;;14.03;4.50;;;;;;;13.15;38.25;100426.83;2155093;82;27834;-65
2021/04/22 13:02:21;;;;;;;11.53;4.40;;;;;;;13.18;38.05;100419.91;2155367;82;28768;-66
2021/04/22 13:05:24;;;;;;;15.03;6.70;;;;;;;13.21;37.48;100416.58;2158075;82;31151;-67
2021/04/22 13:08:31;;;;;;;15.05;6.70;;;;;;;13.19;38.10;100422.98;2157844;82;33970;-62
2021/04/22 13:11:39;;;;;;;12.50;3.85;;;;;;;13.22;38.03;100423.69;2155594;82;30106;-63
2021/04/22 13:14:47;;;;;;;12.98;4.92;;;;;;;13.19;37.48;100410.88;2155720;82;27844;-63
2021/04/22 13:18:13;;;;;;;18.65;8.13;;;;;;;13.15;37.09;100422.30;2155518;82;29834;-63
2021/04/22 13:21:27;;;;;;;12.65;4.58;;;;;;;13.05;37.50;100409.87;2155637;81;32121;-62
2021/04/22 13:24:41;;;;;;;11.22;5.37;;;;;;;12.99;37.56;100411.56;2155351;82;27960;-62
2021/04/22 13:27:56;;;;;;;11.28;4.40;;;;;;;13.01;37.89;100411.48;2155877;82;35118;-61
2021/04/22 13:31:21;;;;;;;12.37;3.77;;;;;;;13.02;37.70;100401.12;2155443;82;27931;-61
2021/04/22 13:34:40;;;;;;;11.03;3.58;;;;;;;13.06;37.80;100416.13;2153490;82;29750;-60
2021/04/22 13:37:48;;;;;;;13.60;4.42;;;;;;;13.09;37.83;100402.97;2152759;82;32085;-62
2021/04/22 13:40:52;;;;;;;10.00;3.95;;;;;;;13.18;37.67;100404.64;2155454;81;33959;-62
2021/04/22 13:44:07;;;;;;;9.33;3.98;;;;;;;13.22;37.57;100399.48;2155876;82;30037;-61
2021/04/22 13:47:16;;;;;;;9.75;3.87;;;;;;;13.27;37.26;100394.28;2155843;82;27871;-61
2021/04/22 13:50:34;;;;;;;12.35;3.70;;;;;;;13.26;37.38;100396.12;2153564;82;27827;-70
2021/04/22 13:53:40;;;;;;;13.73;3.87;;;;;;;13.21;37.43;100386.98;2156012;82;32052;-70
2021/04/22 13:56:45;;;;;;;10.88;3.10;;;;;;;13.18;37.66;100396.58;2156133;82;33216;-68
2021/04/22 14:00:07;;;;;;;11.25;3.45;;;;;;;13.17;37.19;100390.80;2159253;82;30041;-70
2021/04/22 14:03:15;;;;;;;8.18;3.05;;;;;;;13.18;37.37;100388.97;2156063;82;27984;-67
2021/04/22 14:06:18;;;;;;;7.65;2.83;;;;;;;13.16;37.28;100388.19;2161530;82;29687;-70
2021/04/22 14:09:29;;;;;;;11.53;3.37;;;;;;;13.09;36.89;100389.52;2162023;82;32019;-67
2021/04/22 14:12:40;;;;;;;14.33;4.47;;;;;;;12.94;37.16;100396.19;2159099;82;32425;-62
2021/04/22 14:15:49;;;;;;;15.55;3.70;;;;;;;12.86;36.91;100393.95;2159415;82;29153;-61
2021/04/22 14:18:54;;;;;;;9.63;3.10;;;;;;;12.72;37.14;100398.77;2159544;82;28007;-61